createdAt,value
2022-09-20T02:51:19.977Z,2.00
2022-09-20T02:54:15.518Z,2.10
2022-09-20T02:57:10.532Z,2.10
2022-09-20T03:00:21.484Z,2.58
2022-09-20T03:06:23.906Z,3.78
2022-09-20T03:09:33.366Z,2.17
2022-09-20T03:15:46.834Z,2.33
2022-09-20T03:18:53.120Z,2.33
2022-09-20T03:21:43.203Z,2.30
2022-09-20T03:58:44.538Z,1.70
2022-09-20T04:07:58.958Z,2.20
2022-09-20T04:11:00.656Z,2.00
2022-09-20T04:14:20.331Z,2.38
2022-09-20T04:17:08.467Z,2.38
2022-09-20T04:38:58.482Z,1.60
2022-09-20T04:41:45.230Z,1.60
2022-09-20T04:44:23.970Z,2.03
2022-09-20T04:47:01.842Z,2.00
2022-09-20T04:49:58.989Z,1.67
2022-09-20T04:52:56.722Z,1.88
2022-09-20T04:55:33.096Z,1.75
2022-09-20T04:58:21.954Z,1.88
2022-09-20T05:01:22.136Z,2.10
2022-09-20T05:07:36.410Z,2.20
2022-09-20T05:10:40.060Z,1.88
2022-09-20T05:17:09.387Z,1.38
2022-09-20T05:23:06.508Z,1.58
2022-09-20T05:29:13.170Z,1.85
2022-09-20T05:35:30.551Z,2.17
2022-09-20T05:38:35.722Z,2.15
2022-09-20T05:41:42.395Z,2.28
2022-09-20T05:54:38.984Z,2.50
2022-09-20T06:03:41.942Z,2.55
2022-09-20T06:06:55.456Z,2.70
2022-09-20T06:10:07.879Z,2.78
2022-09-20T06:16:19.082Z,2.80
2022-09-20T06:34:12.630Z,3.05
2022-09-20T08:00:41.338Z,3.40
2022-09-20T08:09:48.570Z,3.58
2022-09-20T08:21:43.122Z,3.35
2022-09-20T08:24:36.580Z,2.28
2022-09-20T08:27:13.291Z,1.77
2022-09-20T08:29:51.390Z,1.75
2022-09-20T08:32:35.091Z,1.58
2022-09-20T08:41:24.997Z,1.50
2022-09-20T08:47:44.106Z,1.58
2022-09-20T08:50:40.761Z,1.13
2022-09-20T08:53:50.824Z,1.60
2022-09-20T08:56:36.136Z,1.38
2022-09-20T11:08:42.610Z,2.10
2022-09-20T11:14:42.606Z,2.28
2022-09-20T11:17:44.195Z,1.60
2022-09-20T11:20:24.110Z,1.83
2022-09-20T11:23:10.782Z,1.75
2022-09-20T11:35:34.127Z,2.70
2022-09-20T11:41:35.973Z,2.35
2022-09-20T11:44:09.079Z,1.70
2022-09-20T11:46:41.612Z,1.67
2022-09-20T11:49:15.469Z,1.48
2022-09-20T11:51:55.735Z,1.40
2022-09-20T11:54:34.519Z,1.20
2022-09-20T11:57:02.639Z,1.20
2022-09-20T11:59:32.631Z,1.27
2022-09-20T12:02:05.912Z,1.05
2022-09-20T12:04:36.221Z,1.60
2022-09-20T12:07:31.529Z,0.90
2022-09-20T12:10:02.144Z,1.10
2022-09-20T12:12:48.496Z,1.43
2022-09-20T12:15:45.565Z,1.63
2022-09-20T12:18:29.757Z,1.23
2022-09-20T12:21:18.155Z,1.45
2022-09-20T12:24:11.072Z,1.63
2022-09-20T12:26:45.647Z,1.60
2022-09-20T12:29:38.434Z,1.92
2022-09-20T12:32:28.671Z,2.10
2022-09-20T12:34:57.028Z,2.13
2022-09-20T12:37:29.971Z,1.70
2022-09-20T12:40:22.375Z,2.05
2022-09-20T12:43:03.815Z,1.65
2022-09-20T12:46:11.873Z,2.15
2022-09-20T12:49:00.187Z,2.50
2022-09-20T12:54:59.465Z,1.83
2022-09-20T13:01:13.935Z,1.70
2022-09-20T13:03:59.819Z,1.80
2022-09-20T13:09:53.003Z,1.63
2022-09-20T13:12:43.714Z,2.00
2022-09-20T13:15:26.793Z,2.00
2022-09-20T13:21:03.520Z,2.20
2022-09-20T13:27:57.956Z,1.85
2022-09-20T13:30:55.920Z,2.67
2022-09-20T13:37:00.028Z,1.90
2022-09-20T13:39:52.215Z,1.70
2022-09-20T13:52:06.855Z,1.67
2022-09-20T14:04:04.150Z,2.03
2022-09-20T14:09:59.637Z,1.60
2022-09-20T14:13:05.368Z,1.55
2022-09-20T14:16:00.135Z,1.73
2022-09-20T14:18:34.869Z,1.80
2022-09-20T14:21:07.276Z,1.85
2022-09-20T14:24:04.074Z,2.17
2022-09-20T14:26:36.140Z,2.08
2022-09-20T14:29:27.907Z,1.73
2022-09-20T14:35:13.716Z,1.77
2022-09-20T14:37:47.691Z,1.88
2022-09-20T14:40:36.740Z,2.10
2022-09-20T14:43:32.601Z,2.05
2022-09-20T14:46:14.618Z,3.45
2022-09-20T14:49:01.160Z,4.70
2022-09-20T14:51:40.389Z,2.63
2022-09-20T14:54:10.376Z,1.85
2022-09-20T14:56:40.207Z,1.98
2022-09-20T14:59:16.766Z,2.08
2022-09-20T15:02:05.707Z,2.00
2022-09-20T15:04:34.633Z,1.63
2022-09-20T15:07:14.514Z,1.90
2022-09-20T15:09:42.438Z,1.83
2022-09-20T15:12:16.676Z,1.75
2022-09-20T15:14:46.132Z,1.55
2022-09-20T15:17:19.789Z,2.20
2022-09-20T15:19:53.915Z,1.65
2022-09-20T15:22:23.854Z,1.98
2022-09-20T15:25:00.764Z,1.60
2022-09-20T15:27:33.418Z,2.38
2022-09-20T15:30:01.119Z,1.60
2022-09-20T15:32:35.548Z,1.75
2022-09-20T15:35:08.280Z,1.33
2022-09-20T15:37:40.590Z,2.47
2022-09-20T15:40:13.589Z,2.20
2022-09-20T15:42:56.048Z,1.88
2022-09-20T15:45:32.662Z,2.15
2022-09-20T15:48:01.781Z,1.90
2022-09-20T15:50:31.834Z,2.00
2022-09-20T15:53:03.900Z,1.80
2022-09-20T15:55:33.879Z,2.05
2022-09-20T15:58:13.722Z,1.92
2022-09-20T16:00:51.176Z,1.67
2022-09-20T16:03:26.427Z,1.85
2022-09-20T16:06:04.379Z,1.60
2022-09-20T16:08:42.909Z,1.60
2022-09-20T16:11:18.178Z,1.90
2022-09-20T16:14:01.605Z,2.15
2022-09-20T16:16:36.212Z,2.30
2022-09-20T16:19:24.958Z,3.15
2022-09-20T16:21:58.645Z,2.95
2022-09-20T16:24:33.037Z,2.90
2022-09-20T16:27:08.469Z,2.40
2022-09-20T16:29:41.059Z,2.63
2022-09-20T16:32:13.304Z,2.28
2022-09-20T16:34:42.087Z,2.47
2022-09-20T16:37:13.189Z,2.50
2022-09-20T16:39:45.631Z,3.50
2022-09-20T16:42:14.533Z,3.47
2022-09-20T16:44:43.978Z,2.55
2022-09-20T16:47:14.106Z,3.08
2022-09-20T16:49:45.474Z,3.30
2022-09-20T16:52:14.507Z,2.65
2022-09-20T16:54:42.308Z,3.00
2022-09-20T16:57:17.383Z,3.45
2022-09-20T16:59:45.922Z,2.85
2022-09-20T17:02:14.820Z,4.30
2022-09-20T17:04:47.466Z,4.85
2022-09-20T17:07:27.782Z,3.63
2022-09-20T17:10:07.220Z,3.38
2022-09-20T17:12:35.725Z,3.33
2022-09-20T17:15:05.006Z,3.38
2022-09-20T17:17:35.572Z,4.53
2022-09-20T17:20:21.683Z,3.67
2022-09-20T17:22:59.840Z,3.72
2022-09-20T17:25:30.093Z,3.08
2022-09-20T17:27:59.263Z,3.08
2022-09-20T17:30:38.125Z,2.80
2022-09-20T17:33:08.162Z,3.40
2022-09-20T17:35:38.348Z,3.78
2022-09-20T17:38:06.670Z,3.70
2022-09-20T17:40:34.662Z,3.13
2022-09-20T17:43:05.999Z,3.13
2022-09-20T17:45:36.019Z,3.60
2022-09-20T17:48:12.205Z,4.03
2022-09-20T17:51:12.331Z,3.50
2022-09-20T17:59:53.758Z,3.63
2022-09-20T18:02:52.653Z,3.58
2022-09-20T18:05:27.902Z,3.25
2022-09-20T18:50:27.784Z,3.25
2022-09-20T18:53:02.637Z,3.07
2022-09-20T19:02:15.204Z,2.60
2022-09-20T19:31:21.329Z,3.00
2022-09-20T19:40:04.149Z,2.25
2022-09-20T19:42:58.368Z,2.15
2022-09-20T19:45:41.051Z,2.20
2022-09-20T19:48:25.986Z,2.10
2022-09-20T19:51:01.812Z,2.60
2022-09-20T19:53:30.040Z,2.20
2022-09-20T19:56:24.112Z,2.05
2022-09-20T19:59:06.610Z,2.10
2022-09-20T20:01:37.304Z,1.98
2022-09-20T20:04:16.286Z,1.67
2022-09-20T20:06:54.108Z,1.83
2022-09-20T20:09:31.246Z,2.50
2022-09-20T20:12:34.261Z,1.90
2022-09-20T20:15:21.828Z,2.13
2022-09-20T20:18:16.367Z,2.70
2022-09-20T20:21:13.581Z,2.63
2022-09-20T20:23:43.194Z,2.30
2022-09-20T20:26:20.866Z,2.58
2022-09-20T20:28:49.788Z,2.63
2022-09-20T20:31:24.451Z,2.60
2022-09-20T20:34:07.025Z,2.80
2022-09-20T20:36:37.434Z,2.83
2022-09-20T20:39:09.535Z,2.97
2022-09-20T20:41:37.524Z,2.83
2022-09-20T20:44:07.686Z,3.00
2022-09-20T20:46:37.367Z,2.88
2022-09-20T20:49:05.655Z,3.42
2022-09-20T20:51:34.505Z,2.53
2022-09-20T20:54:04.563Z,2.85
2022-09-20T20:56:32.689Z,2.70
2022-09-20T20:59:03.346Z,2.38
2022-09-20T21:01:44.251Z,2.35
2022-09-20T21:04:13.148Z,2.13
2022-09-20T21:06:58.207Z,2.40
2022-09-20T21:13:19.636Z,2.25
2022-09-20T21:16:13.748Z,2.78
2022-09-20T21:18:55.429Z,1.80
2022-09-20T21:21:38.041Z,2.30
2022-09-20T21:24:11.050Z,2.20
2022-09-20T21:26:49.581Z,2.00
2022-09-20T21:29:23.933Z,2.38
2022-09-20T21:35:13.980Z,1.75
2022-09-20T21:37:55.872Z,2.05
2022-09-20T21:40:28.397Z,2.00
2022-09-20T21:43:31.204Z,1.90
2022-09-20T21:46:20.749Z,2.10
2022-09-20T21:48:49.826Z,2.28
2022-09-20T21:51:36.694Z,2.70
2022-09-20T21:54:06.291Z,2.33
2022-09-20T21:56:42.889Z,2.28
2022-09-20T21:59:22.279Z,1.88
2022-09-20T22:02:05.373Z,2.15
2022-09-20T22:04:35.392Z,2.05
2022-09-20T22:10:52.654Z,2.55
2022-09-20T22:23:06.167Z,2.50
2022-09-20T22:25:37.193Z,2.30
2022-09-20T22:28:15.974Z,2.10
2022-09-20T22:33:51.999Z,1.83
2022-09-20T22:36:27.664Z,1.80
2022-09-20T22:39:46.764Z,2.00
2022-09-20T22:51:58.511Z,2.30
2022-09-20T23:04:10.931Z,2.50
2022-09-20T23:13:25.635Z,2.72
2022-09-20T23:16:37.195Z,3.47
2022-09-20T23:28:31.818Z,2.30
2022-09-20T23:31:39.518Z,2.13
2022-09-20T23:46:32.250Z,2.22
2022-09-20T23:49:01.414Z,2.10
